createdAt,value
2022-11-07T00:02:03.432Z,46.62
2022-11-07T00:05:12.353Z,45.09
2022-11-07T00:08:17.992Z,46.20
2022-11-07T00:11:23.708Z,45.81
2022-11-07T00:14:29.453Z,43.97
2022-11-07T00:17:36.042Z,43.73
2022-11-07T00:20:44.292Z,44.19
2022-11-07T00:23:50.084Z,44.20
2022-11-07T00:26:55.795Z,44.42
2022-11-07T00:30:01.556Z,43.31
2022-11-07T00:33:07.387Z,45.66
2022-11-07T00:36:22.737Z,48.12
2022-11-07T00:39:28.385Z,44.83
2022-11-07T00:42:33.964Z,45.99
2022-11-07T00:45:39.653Z,46.10
2022-11-07T00:48:45.399Z,45.35
2022-11-07T00:51:53.629Z,44.60
2022-11-07T00:54:59.218Z,44.85
2022-11-07T00:58:07.529Z,43.44
2022-11-07T01:01:20.204Z,43.07
2022-11-07T01:04:38.283Z,43.41
2022-11-07T01:07:46.466Z,42.41
2022-11-07T01:10:52.004Z,43.17
2022-11-07T01:13:59.719Z,42.98
2022-11-07T01:17:05.421Z,43.80
2022-11-07T01:20:13.357Z,44.88
2022-11-07T01:23:22.935Z,46.76
2022-11-07T01:26:28.531Z,46.28
2022-11-07T01:29:34.232Z,44.77
2022-11-07T01:32:39.847Z,45.41
2022-11-07T01:35:45.683Z,44.91
2022-11-07T01:38:53.918Z,43.34
2022-11-07T01:42:00.283Z,44.92
2022-11-07T01:45:06.288Z,45.08
2022-11-07T01:48:12.278Z,43.52
2022-11-07T01:51:22.141Z,42.83
2022-11-07T01:54:38.412Z,43.08
2022-11-07T01:57:51.001Z,44.55
2022-11-07T02:00:56.622Z,44.11
2022-11-07T02:04:05.460Z,44.66
2022-11-07T02:07:21.603Z,44.15
2022-11-07T02:10:31.125Z,45.23
2022-11-07T02:13:40.179Z,43.78
2022-11-07T02:16:47.453Z,44.52
2022-11-07T02:19:56.938Z,43.81
2022-11-07T02:23:11.851Z,42.41
2022-11-07T02:26:22.306Z,42.55
2022-11-07T02:29:30.541Z,41.24
2022-11-07T02:32:36.445Z,43.05
2022-11-07T02:35:45.710Z,42.63
2022-11-07T02:38:57.636Z,42.66
2022-11-07T02:42:07.875Z,40.22
2022-11-07T02:45:19.125Z,41.92
2022-11-07T02:48:24.738Z,41.20
2022-11-07T02:51:30.766Z,38.88
2022-11-07T02:54:37.420Z,39.30
2022-11-07T02:57:46.350Z,41.07
2022-11-07T03:00:51.975Z,39.29
2022-11-07T03:03:57.750Z,41.18
2022-11-07T03:07:03.336Z,40.10
2022-11-07T03:10:10.525Z,39.03
2022-11-07T03:13:18.665Z,40.42
2022-11-07T03:16:24.925Z,39.67
2022-11-07T03:19:30.599Z,39.25
2022-11-07T03:22:36.188Z,38.91
2022-11-07T03:25:42.283Z,39.78
2022-11-07T03:28:50.540Z,41.22
2022-11-07T03:31:56.089Z,40.94
2022-11-07T03:35:01.668Z,40.25
2022-11-07T03:38:07.366Z,41.80
2022-11-07T03:41:17.248Z,41.20
2022-11-07T03:44:25.455Z,40.00
2022-11-07T03:47:31.017Z,41.93
2022-11-07T03:50:36.645Z,42.55
2022-11-07T03:53:42.224Z,41.35
2022-11-07T03:56:47.803Z,41.75
2022-11-07T03:59:56.128Z,41.15
2022-11-07T04:03:04.624Z,41.35
2022-11-07T04:06:11.117Z,40.31
2022-11-07T04:09:16.847Z,40.34
2022-11-07T04:12:34.867Z,41.28
2022-11-07T04:15:59.749Z,42.63
2022-11-07T04:19:26.639Z,41.45
2022-11-07T04:22:52.191Z,40.00
2022-11-07T04:26:30.692Z,42.19
2022-11-07T04:29:56.248Z,41.55
2022-11-07T04:33:24.379Z,42.60
2022-11-07T04:36:49.953Z,42.39
2022-11-07T04:40:16.095Z,44.46
2022-11-07T04:43:41.707Z,46.12
2022-11-07T04:47:07.440Z,48.32
2022-11-07T04:50:36.190Z,51.75
2022-11-07T04:54:01.760Z,52.05
2022-11-07T04:57:27.300Z,53.86
2022-11-07T05:00:52.891Z,53.42
2022-11-07T05:04:18.493Z,54.85
2022-11-07T05:07:47.743Z,54.49
2022-11-07T05:11:13.284Z,53.57
2022-11-07T05:14:38.910Z,57.93
2022-11-07T05:18:04.420Z,68.80
2022-11-07T05:21:29.958Z,76.01
2022-11-07T05:24:58.306Z,58.40
2022-11-07T05:28:34.029Z,67.21
2022-11-07T05:32:03.800Z,93.22
2022-11-07T05:35:29.341Z,86.84
2022-11-07T05:38:56.678Z,87.76
2022-11-07T05:42:24.865Z,79.53
2022-11-07T05:45:50.401Z,63.72
2022-11-07T05:49:15.924Z,56.93
2022-11-07T05:52:41.499Z,53.53
2022-11-07T05:56:07.628Z,53.01
2022-11-07T05:59:35.820Z,49.90
2022-11-07T06:03:03.251Z,42.82
2022-11-07T06:06:28.769Z,41.38
2022-11-07T06:09:54.379Z,37.58
2022-11-07T06:13:20.412Z,36.26
2022-11-07T06:16:51.874Z,35.52
2022-11-07T06:20:19.678Z,34.91
2022-11-07T06:23:45.254Z,34.80
2022-11-07T06:27:10.809Z,34.98
2022-11-07T06:30:43.245Z,33.48
2022-11-07T06:34:11.688Z,33.70
2022-11-07T06:37:37.246Z,31.69
2022-11-07T06:41:09.816Z,29.54
2022-11-07T06:44:35.431Z,27.38
2022-11-07T06:48:00.966Z,26.08
2022-11-07T06:51:29.123Z,25.84
2022-11-07T06:54:54.686Z,24.73
2022-11-07T06:58:20.674Z,23.32
2022-11-07T07:01:46.354Z,22.43
2022-11-07T07:05:17.109Z,21.51
2022-11-07T07:08:49.750Z,21.01
2022-11-07T07:12:15.384Z,19.88
2022-11-07T07:15:51.290Z,19.09
2022-11-07T07:19:17.186Z,17.16
2022-11-07T07:22:44.970Z,16.54
2022-11-07T07:26:18.485Z,14.48
2022-11-07T07:29:44.047Z,12.14
2022-11-07T07:33:09.695Z,11.09
2022-11-07T07:36:35.736Z,11.84
2022-11-07T07:40:01.277Z,10.61
2022-11-07T07:43:30.803Z,10.86
2022-11-07T07:46:59.184Z,10.82
2022-11-07T07:50:24.907Z,10.47
2022-11-07T07:53:50.451Z,9.93
2022-11-07T07:57:15.968Z,9.52
2022-11-07T08:00:58.057Z,9.58
2022-11-07T08:04:24.311Z,9.59
2022-11-07T08:07:51.683Z,9.38
2022-11-07T08:11:17.224Z,10.55
2022-11-07T08:14:41.081Z,10.82
2022-11-07T08:17:49.996Z,13.05
2022-11-07T08:20:58.900Z,13.90
2022-11-07T08:24:04.645Z,13.32
2022-11-07T08:27:10.230Z,18.77
2022-11-07T08:30:18.221Z,16.84
2022-11-07T08:33:27.281Z,14.70
2022-11-07T08:36:33.421Z,14.84
2022-11-07T08:39:47.049Z,14.80
2022-11-07T08:42:52.934Z,12.97
2022-11-07T08:45:59.958Z,13.03
2022-11-07T08:49:11.741Z,14.39
2022-11-07T08:52:17.341Z,14.62
2022-11-07T08:55:22.997Z,16.44
2022-11-07T08:58:30.138Z,15.56
2022-11-07T09:01:56.064Z,14.04
2022-11-07T09:05:04.343Z,13.56
2022-11-07T09:08:10.227Z,13.34
2022-11-07T09:11:19.186Z,13.38
2022-11-07T09:14:25.288Z,13.92
2022-11-07T09:17:31.307Z,13.75
2022-11-07T09:20:40.515Z,13.95
2022-11-07T09:23:46.265Z,13.85
2022-11-07T09:26:51.835Z,14.55
2022-11-07T09:29:57.500Z,15.18
2022-11-07T09:33:05.420Z,15.58
2022-11-07T09:36:14.784Z,14.34
2022-11-07T09:39:21.402Z,13.71
2022-11-07T09:42:47.366Z,12.39
2022-11-07T09:46:13.859Z,11.90
2022-11-07T09:49:27.669Z,11.46
2022-11-07T09:52:49.039Z,11.26
2022-11-07T09:56:01.849Z,11.28
2022-11-07T09:59:18.156Z,11.75
2022-11-07T10:02:30.377Z,11.24
2022-11-07T10:05:51.235Z,11.25
2022-11-07T10:09:18.567Z,10.63
2022-11-07T10:12:50.594Z,10.41
2022-11-07T10:16:18.903Z,12.67
2022-11-07T10:19:49.431Z,12.43
2022-11-07T10:23:24.757Z,12.21
2022-11-07T10:26:35.468Z,14.51
2022-11-07T10:29:54.710Z,14.38
2022-11-07T10:33:17.619Z,15.43
2022-11-07T10:36:29.482Z,13.31
2022-11-07T10:39:35.726Z,12.92
2022-11-07T10:42:44.363Z,12.66
2022-11-07T10:45:50.576Z,13.08
2022-11-07T10:49:00.357Z,13.29
2022-11-07T10:52:14.817Z,12.82
2022-11-07T10:55:20.946Z,14.64
2022-11-07T10:58:33.254Z,12.53
2022-11-07T11:01:39.243Z,10.35
2022-11-07T11:04:54.174Z,11.83
2022-11-07T11:08:15.653Z,12.65
2022-11-07T11:11:37.610Z,12.30
2022-11-07T11:14:46.245Z,11.82
2022-11-07T11:18:05.729Z,13.52
2022-11-07T11:21:26.214Z,12.49
2022-11-07T11:24:40.498Z,14.24
2022-11-07T11:27:51.180Z,11.92
2022-11-07T11:31:09.301Z,11.58
2022-11-07T11:34:27.550Z,11.83
2022-11-07T11:37:46.101Z,13.13
2022-11-07T11:41:05.956Z,13.87
2022-11-07T11:44:23.744Z,13.04
2022-11-07T11:47:44.759Z,11.56
2022-11-07T11:51:04.880Z,11.58
2022-11-07T11:54:13.937Z,11.84
2022-11-07T11:57:30.045Z,11.06
2022-11-07T12:00:48.849Z,10.36
2022-11-07T12:04:41.312Z,11.60
2022-11-07T12:08:20.694Z,12.62
2022-11-07T12:11:52.593Z,11.31
2022-11-07T12:15:30.698Z,10.69
2022-11-07T12:18:52.677Z,9.78
2022-11-07T12:22:21.350Z,10.56
2022-11-07T12:25:35.979Z,11.30
2022-11-07T12:29:06.913Z,10.64
2022-11-07T12:32:26.239Z,10.84
2022-11-07T12:35:48.677Z,10.76
2022-11-07T12:39:25.658Z,11.62
2022-11-07T12:42:59.807Z,10.65
2022-11-07T12:46:21.345Z,10.79
2022-11-07T12:50:08.910Z,10.78
2022-11-07T12:53:40.715Z,11.50
2022-11-07T12:56:52.319Z,11.21
2022-11-07T13:00:05.454Z,12.86
2022-11-07T13:04:06.142Z,11.94
2022-11-07T13:07:27.704Z,11.66
2022-11-07T13:10:49.277Z,11.37
2022-11-07T13:14:27.383Z,11.60
2022-11-07T13:17:44.420Z,11.52
2022-11-07T13:20:50.675Z,11.48
2022-11-07T13:23:56.317Z,12.99
2022-11-07T13:27:04.896Z,12.01
2022-11-07T13:30:30.627Z,11.41
2022-11-07T13:33:38.863Z,10.86
2022-11-07T13:36:44.661Z,11.01
2022-11-07T13:39:57.915Z,11.07
2022-11-07T13:43:16.777Z,10.97
2022-11-07T13:46:33.700Z,12.51
2022-11-07T13:49:45.758Z,15.59
2022-11-07T13:53:02.354Z,16.47
2022-11-07T13:56:29.797Z,12.74
2022-11-07T13:59:51.021Z,9.70
2022-11-07T14:03:01.984Z,11.92
2022-11-07T14:06:09.959Z,17.92
2022-11-07T14:09:29.061Z,14.87
2022-11-07T14:12:40.699Z,14.73
2022-11-07T14:15:53.820Z,16.83
2022-11-07T14:19:07.113Z,11.99
2022-11-07T14:22:25.810Z,12.34
2022-11-07T14:25:35.785Z,12.09
2022-11-07T14:28:44.016Z,13.93
2022-11-07T14:31:49.584Z,18.81
2022-11-07T14:34:59.049Z,14.81
2022-11-07T14:38:14.767Z,12.51
2022-11-07T14:41:24.034Z,12.66
2022-11-07T14:44:56.352Z,11.22
2022-11-07T14:48:02.412Z,12.80
2022-11-07T14:51:15.122Z,12.23
2022-11-07T14:54:24.966Z,14.19
2022-11-07T14:57:31.085Z,15.87
2022-11-07T15:00:38.198Z,12.57
2022-11-07T15:03:58.061Z,13.16
2022-11-07T15:07:24.425Z,13.99
2022-11-07T15:10:36.892Z,14.75
2022-11-07T15:13:42.641Z,15.18
2022-11-07T15:16:54.002Z,16.42
2022-11-07T15:20:06.111Z,19.10
2022-11-07T15:23:34.694Z,20.25
2022-11-07T15:26:40.295Z,19.14
2022-11-07T15:29:55.655Z,15.02
2022-11-07T15:33:02.423Z,12.79
2022-11-07T15:36:09.483Z,14.01
2022-11-07T15:39:18.068Z,14.44
2022-11-07T15:42:23.913Z,13.99
2022-11-07T15:45:29.893Z,13.79
2022-11-07T15:48:41.255Z,13.16
2022-11-07T15:51:47.222Z,14.00
2022-11-07T15:54:55.493Z,15.88
2022-11-07T15:58:01.083Z,17.09
2022-11-07T16:01:07.180Z,18.84
2022-11-07T16:04:13.110Z,17.71
2022-11-07T16:07:22.901Z,18.11
2022-11-07T16:10:31.175Z,19.20
2022-11-07T16:13:36.727Z,19.00
2022-11-07T16:16:43.100Z,19.63
2022-11-07T16:19:49.370Z,23.69
2022-11-07T16:22:56.008Z,24.89
2022-11-07T16:26:04.732Z,23.73
2022-11-07T16:29:13.216Z,25.66
2022-11-07T16:32:19.286Z,24.30
2022-11-07T16:35:25.632Z,24.53
2022-11-07T16:38:36.721Z,24.23
2022-11-07T16:41:44.978Z,24.52
2022-11-07T16:44:50.669Z,27.61
2022-11-07T16:47:56.281Z,26.18
2022-11-07T16:51:03.395Z,25.12
2022-11-07T16:54:09.018Z,27.16
2022-11-07T16:57:21.631Z,27.29
2022-11-07T17:00:27.202Z,28.26
2022-11-07T17:03:32.881Z,30.29
2022-11-07T17:06:43.582Z,33.09
2022-11-07T17:09:49.478Z,34.11
2022-11-07T17:12:57.645Z,34.21
2022-11-07T17:16:03.450Z,35.46
2022-11-07T17:19:09.794Z,36.19
2022-11-07T17:22:17.929Z,37.76
2022-11-07T17:25:23.625Z,39.37
2022-11-07T17:28:31.840Z,38.49
2022-11-07T17:31:37.712Z,39.19
2022-11-07T17:34:43.364Z,41.28
2022-11-07T17:37:49.072Z,42.65
2022-11-07T17:40:54.605Z,44.76
2022-11-07T17:44:04.306Z,49.24
2022-11-07T17:47:22.473Z,50.88
2022-11-07T17:50:37.835Z,48.62
2022-11-07T17:53:43.705Z,47.82
2022-11-07T17:56:49.885Z,48.30
2022-11-07T17:59:58.119Z,55.07
2022-11-07T18:03:03.879Z,60.68
2022-11-07T18:06:10.386Z,52.12
2022-11-07T18:09:18.521Z,48.12
2022-11-07T18:12:24.076Z,51.00
2022-11-07T18:15:32.215Z,51.34
2022-11-07T18:18:41.050Z,52.05
2022-11-07T18:21:46.890Z,45.51
2022-11-07T18:24:52.526Z,43.92
2022-11-07T18:27:58.103Z,44.48
2022-11-07T18:31:13.790Z,41.91
2022-11-07T18:34:20.699Z,37.99
2022-11-07T18:37:45.855Z,37.30
2022-11-07T18:41:00.256Z,39.21
2022-11-07T18:44:10.438Z,38.77
2022-11-07T18:47:22.607Z,35.03
2022-11-07T18:50:28.529Z,34.46
2022-11-07T18:53:34.552Z,36.54
2022-11-07T18:56:40.325Z,35.00
2022-11-07T18:59:45.936Z,31.64
2022-11-07T19:02:54.589Z,32.41
2022-11-07T19:06:01.014Z,35.65
2022-11-07T19:09:19.344Z,35.66
2022-11-07T19:12:24.911Z,37.88
2022-11-07T19:15:35.089Z,40.32
2022-11-07T19:18:49.481Z,41.80
2022-11-07T19:22:01.569Z,41.73
2022-11-07T19:25:07.998Z,47.85
2022-11-07T19:28:15.591Z,49.58
2022-11-07T19:31:21.609Z,51.03
2022-11-07T19:34:33.455Z,49.56
2022-11-07T19:37:39.564Z,46.26
2022-11-07T19:40:51.972Z,41.01
2022-11-07T19:43:59.373Z,36.08
2022-11-07T19:47:05.193Z,36.14
2022-11-07T19:50:13.925Z,33.77
2022-11-07T19:52:52.657Z,30.61
2022-11-07T19:55:02.630Z,30.04
2022-11-07T19:57:08.825Z,28.99
2022-11-07T19:59:14.718Z,28.89
2022-11-07T20:01:25.113Z,28.14
2022-11-07T20:03:40.140Z,27.45
2022-11-07T20:06:11.075Z,28.80
2022-11-07T20:08:20.439Z,30.38
2022-11-07T20:10:38.933Z,30.30
2022-11-07T20:12:47.165Z,29.78
2022-11-07T20:14:54.183Z,30.60
2022-11-07T20:17:00.104Z,31.14
2022-11-07T20:19:26.041Z,30.23
2022-11-07T20:21:49.238Z,28.03
2022-11-07T20:24:16.251Z,28.80
2022-11-07T20:26:26.338Z,24.72
2022-11-07T20:28:33.082Z,24.84
2022-11-07T20:30:47.218Z,22.71
2022-11-07T20:32:56.040Z,24.16
2022-11-07T20:35:03.303Z,23.05
2022-11-07T20:37:09.192Z,22.73
2022-11-07T20:39:18.101Z,23.41
2022-11-07T20:41:41.608Z,23.14
2022-11-07T20:43:48.571Z,23.20
2022-11-07T20:45:57.062Z,22.74
2022-11-07T20:48:06.282Z,21.25
2022-11-07T20:50:12.898Z,22.58
2022-11-07T20:52:19.215Z,22.63
2022-11-07T20:54:29.609Z,23.68
2022-11-07T20:56:35.741Z,25.04
2022-11-07T20:58:45.077Z,24.42
2022-11-07T21:00:55.239Z,23.42
2022-11-07T21:03:05.529Z,23.30
2022-11-07T21:05:20.288Z,22.79
2022-11-07T21:07:28.738Z,23.24
2022-11-07T21:09:41.622Z,22.67
2022-11-07T21:11:50.755Z,23.78
2022-11-07T21:13:59.777Z,23.51
2022-11-07T21:16:11.772Z,23.71
2022-11-07T21:18:18.922Z,23.63
2022-11-07T21:20:26.954Z,23.99
2022-11-07T21:22:37.403Z,23.90
2022-11-07T21:24:47.145Z,23.74
2022-11-07T21:26:56.749Z,26.07
2022-11-07T21:29:06.736Z,26.95
2022-11-07T21:31:16.495Z,26.54
2022-11-07T21:33:27.369Z,26.84
2022-11-07T21:35:44.832Z,25.61
2022-11-07T21:37:53.548Z,25.78
2022-11-07T21:40:10.208Z,27.95
2022-11-07T21:42:26.091Z,30.04
2022-11-07T21:44:37.020Z,32.54
2022-11-07T21:46:45.499Z,40.90
2022-11-07T21:48:52.761Z,44.70
2022-11-07T21:51:10.846Z,46.68
2022-11-07T21:53:18.515Z,46.39
2022-11-07T21:55:27.976Z,43.82
2022-11-07T21:57:34.447Z,40.95
2022-11-07T21:59:42.856Z,36.78
2022-11-07T22:01:50.262Z,35.19
2022-11-07T22:04:06.858Z,33.57
2022-11-07T22:06:19.819Z,29.84
2022-11-07T22:08:26.741Z,27.91
2022-11-07T22:10:36.452Z,25.51
2022-11-07T22:12:43.807Z,23.19
2022-11-07T22:14:51.106Z,22.32
2022-11-07T22:16:59.825Z,21.30
2022-11-07T22:19:15.249Z,21.39
2022-11-07T22:21:24.793Z,23.13
2022-11-07T22:23:35.407Z,24.08
2022-11-07T22:25:45.505Z,25.72
2022-11-07T22:27:52.899Z,25.19
2022-11-07T22:29:59.571Z,23.58
2022-11-07T22:32:07.362Z,22.70
2022-11-07T22:34:13.958Z,21.00
2022-11-07T22:36:25.824Z,20.47
2022-11-07T22:38:36.692Z,22.96
2022-11-07T22:40:50.719Z,22.21
2022-11-07T22:42:57.355Z,20.17
2022-11-07T22:45:05.164Z,19.01
2022-11-07T22:47:11.723Z,18.51
2022-11-07T22:49:18.298Z,17.27
2022-11-07T22:51:28.809Z,17.36
2022-11-07T22:53:36.279Z,18.70
2022-11-07T22:55:43.937Z,18.08
2022-11-07T22:57:54.951Z,17.30
2022-11-07T23:00:19.734Z,17.75
2022-11-07T23:02:27.502Z,19.16
2022-11-07T23:04:35.093Z,18.20
2022-11-07T23:06:46.073Z,19.12
2022-11-07T23:08:54.729Z,19.89
2022-11-07T23:13:40.176Z,25.42
2022-11-07T23:15:46.797Z,24.93
2022-11-07T23:17:54.390Z,23.62
2022-11-07T23:20:01.984Z,23.88
2022-11-07T23:22:10.288Z,23.52
2022-11-07T23:24:21.008Z,24.67
2022-11-07T23:26:34.259Z,25.00
2022-11-07T23:28:45.354Z,27.73
2022-11-07T23:30:55.406Z,27.21
2022-11-07T23:33:02.018Z,27.11
2022-11-07T23:35:10.124Z,24.24
2022-11-07T23:37:18.900Z,24.12
2022-11-07T23:39:26.957Z,24.42
2022-11-07T23:41:33.469Z,23.62
2022-11-07T23:43:48.532Z,22.97
2022-11-07T23:46:11.860Z,22.80
2022-11-07T23:48:31.193Z,23.14
2022-11-07T23:50:50.666Z,22.48
2022-11-07T23:52:57.552Z,23.10
2022-11-07T23:55:16.217Z,23.37
2022-11-07T23:57:23.806Z,24.75
2022-11-07T23:59:45.170Z,24.43
